Time;durP1;ratioP1;P1;durP2;ratioP2;P2;SDS_P1;SDS_P2;PMS_P1;PMS_P2;Temp;Humidity;BMP_temperature;BMP_pressure;BME280_temperature;BME280_humidity;BME280_pressure;Samples;Min_cycle;Max_cycle;Signal;HPM_P1;HPM_P2
2023/03/30 00:00:37;;;;;;;2.17;1.90;;;;;;;7.44;35.17;95422.25;4970961;28;20215;-64
2023/03/30 00:03:02;;;;;;;2.93;1.80;;;;;;;7.23;35.54;95426.59;4967513;28;20235;-64
2023/03/30 00:05:28;;;;;;;1.87;1.77;;;;;;;7.21;35.42;95421.47;4968722;28;20185;-64
2023/03/30 00:07:54;;;;;;;5.53;1.90;;;;;;;7.06;35.87;95433.97;4993453;28;20231;-65
2023/03/30 00:10:20;;;;;;;3.10;1.70;;;;;;;7.21;35.86;95424.06;4990972;28;20232;-63
2023/03/30 00:12:49;;;;;;;2.30;1.70;;;;;;;7.22;35.31;95425.75;4970143;28;20248;-72
2023/03/30 00:15:17;;;;;;;1.70;1.60;;;;;;;7.32;35.35;95425.84;4973206;28;20212;-70
2023/03/30 00:17:44;;;;;;;2.17;1.60;;;;;;;7.23;35.41;95416.94;4958994;28;20284;-63
2023/03/30 00:20:11;;;;;;;3.07;1.60;;;;;;;7.17;35.78;95408.78;4971048;28;20191;-69
2023/03/30 00:22:41;;;;;;;2.50;1.80;;;;;;;7.21;35.79;95410.19;4973285;28;20282;-68
2023/03/30 00:25:09;;;;;;;1.77;1.47;;;;;;;7.30;35.92;95409.47;4964568;28;20220;-70
2023/03/30 00:27:36;;;;;;;9.13;2.30;;;;;;;7.36;35.50;95406.34;4971318;28;20213;-70
2023/03/30 00:30:03;;;;;;;3.07;1.67;;;;;;;7.37;35.56;95410.63;4962656;28;20228;-68
2023/03/30 00:32:29;;;;;;;2.13;1.70;;;;;;;7.26;35.54;95414.09;4973474;28;20188;-64
2023/03/30 00:34:55;;;;;;;1.87;1.63;;;;;;;7.38;35.69;95404.44;4963168;28;20221;-71
2023/03/30 00:37:21;;;;;;;2.43;1.63;;;;;;;7.32;36.10;95402.31;4971169;28;20229;-69
2023/03/30 00:39:46;;;;;;;2.53;1.83;;;;;;;7.17;36.38;95421.84;4967632;28;20721;-70
2023/03/30 00:42:16;;;;;;;2.77;1.70;;;;;;;6.83;37.61;95408.78;4972390;28;20220;-67
2023/03/30 00:45:18;;;;;;;2.33;1.67;;;;;;;6.92;37.56;95415.91;4994789;28;20199;-64
2023/03/30 00:48:08;;;;;;;3.83;2.03;;;;;;;6.86;37.97;95421.63;4963445;28;20193;-64
2023/03/30 00:50:43;;;;;;;3.87;2.07;;;;;;;6.83;38.37;95412.22;4960907;28;20275;-71
2023/03/30 00:53:17;;;;;;;3.17;2.20;;;;;;;6.89;38.68;95410.91;4995103;28;20187;-70
2023/03/30 00:55:45;;;;;;;3.17;2.13;;;;;;;6.87;38.82;95415.47;4967526;28;20216;-69
2023/03/30 00:58:14;;;;;;;3.73;2.30;;;;;;;7.00;38.76;95418.78;4964636;28;20232;-67
2023/03/30 01:00:42;;;;;;;2.20;1.80;;;;;;;6.84;39.52;95423.50;4970312;28;20221;-68
2023/03/30 01:03:22;;;;;;;2.60;1.90;;;;;;;6.92;39.46;95417.69;4966687;28;20229;-65
2023/03/30 01:05:50;;;;;;;2.60;1.87;;;;;;;7.01;39.47;95414.38;4969760;28;20196;-69
2023/03/30 01:08:15;;;;;;;2.97;1.67;;;;;;;6.99;39.14;95411.88;4967415;28;20198;-64
2023/03/30 01:10:42;;;;;;;1.90;1.60;;;;;;;6.99;39.45;95408.44;4968362;28;20220;-67
2023/03/30 01:13:08;;;;;;;2.40;1.90;;;;;;;7.05;39.43;95418.41;4968394;28;20269;-70
2023/03/30 01:15:41;;;;;;;2.37;1.80;;;;;;;7.09;39.25;95412.00;4968834;28;20217;-65
2023/03/30 01:18:35;;;;;;;2.83;1.83;;;;;;;7.10;38.91;95403.19;4966096;28;20224;-71
2023/03/30 01:21:22;;;;;;;3.40;1.83;;;;;;;7.06;39.07;95413.06;4966573;28;20239;-69
2023/03/30 01:24:06;;;;;;;2.33;1.70;;;;;;;6.91;39.19;95426.50;4966644;28;20231;-67
2023/03/30 01:26:52;;;;;;;2.20;1.97;;;;;;;6.75;39.63;95419.84;4979701;28;20193;-69
2023/03/30 01:29:23;;;;;;;2.10;1.63;;;;;;;6.70;40.03;95419.34;4968866;28;20192;-64
2023/03/30 01:32:04;;;;;;;2.07;1.70;;;;;;;6.73;40.12;95420.91;4993480;28;20230;-64
2023/03/30 01:34:51;;;;;;;2.00;1.80;;;;;;;6.79;39.79;95415.19;4973007;28;20217;-68
2023/03/30 01:37:25;;;;;;;4.33;1.90;;;;;;;6.98;39.29;95420.69;4965449;28;20228;-64
2023/03/30 01:40:17;;;;;;;3.17;1.90;;;;;;;6.91;39.55;95424.72;4997333;28;20251;-64
2023/03/30 01:43:09;;;;;;;2.60;1.80;;;;;;;6.92;39.22;95426.34;4956523;28;20264;-64
2023/03/30 01:45:46;;;;;;;2.53;2.03;;;;;;;6.72;39.73;95419.25;4996278;28;20235;-64
2023/03/30 01:48:44;;;;;;;2.10;1.90;;;;;;;6.71;39.17;95413.19;4986711;28;20342;-63
2023/03/30 01:51:37;;;;;;;2.57;2.03;;;;;;;6.77;39.07;95422.34;4898419;29;20264;-64
2023/03/30 01:54:15;;;;;;;3.03;2.17;;;;;;;6.78;39.09;95422.22;4898055;29;20222;-64
2023/03/30 01:56:47;;;;;;;3.10;2.00;;;;;;;6.87;38.92;95431.16;4910424;29;20198;-69
2023/03/30 01:59:42;;;;;;;3.47;1.83;;;;;;;6.74;39.58;95422.59;4913642;29;20182;-65
2023/03/30 02:02:12;;;;;;;2.67;1.90;;;;;;;6.72;39.75;95424.47;4909731;29;20241;-70
2023/03/30 02:04:41;;;;;;;3.50;1.90;;;;;;;6.44;40.68;95423.94;4897378;29;20218;-64
2023/03/30 02:07:14;;;;;;;4.17;2.33;;;;;;;6.55;40.67;95434.44;4900861;29;20253;-71
2023/03/30 02:09:42;;;;;;;3.87;2.00;;;;;;;6.24;40.91;95425.47;4897769;29;20269;-64
2023/03/30 02:12:10;;;;;;;3.10;2.23;;;;;;;6.33;40.89;95423.94;4917949;29;20197;-65
2023/03/30 02:14:37;;;;;;;2.87;1.90;;;;;;;6.38;40.96;95434.88;4903038;29;20198;-71
2023/03/30 02:17:10;;;;;;;2.47;2.07;;;;;;;6.25;41.63;95423.69;4901145;29;20304;-64
2023/03/30 02:19:37;;;;;;;2.97;2.00;;;;;;;6.43;41.12;95440.59;4913846;29;20226;-65
2023/03/30 02:22:03;;;;;;;4.53;2.27;;;;;;;6.28;41.66;95415.63;4885173;29;20286;-63
2023/03/30 02:24:30;;;;;;;2.37;1.80;;;;;;;6.29;41.73;95432.97;4877389;29;20223;-64
2023/03/30 02:26:58;;;;;;;8.33;2.03;;;;;;;6.53;41.36;95435.50;4899316;28;20231;-72
2023/03/30 02:29:24;;;;;;;3.57;2.00;;;;;;;6.48;41.83;95433.22;4963784;28;20187;-64
2023/03/30 02:31:53;;;;;;;2.80;1.90;;;;;;;6.48;41.60;95420.19;4961165;28;20220;-64
2023/03/30 02:34:46;;;;;;;3.10;1.90;;;;;;;6.49;42.14;95434.88;4960727;28;20220;-64
2023/03/30 02:37:33;;;;;;;2.57;2.10;;;;;;;6.69;41.83;95432.56;4978990;28;20307;-65
2023/03/30 02:40:21;;;;;;;3.50;2.17;;;;;;;6.55;42.06;95442.28;4975885;28;20303;-68
2023/03/30 02:43:13;;;;;;;2.33;2.13;;;;;;;6.53;42.69;95430.28;4990711;28;20286;-64
2023/03/30 02:45:56;;;;;;;3.87;2.00;;;;;;;6.54;42.67;95432.75;4958002;28;20585;-65
2023/03/30 02:48:41;;;;;;;3.33;1.80;;;;;;;6.32;43.83;95444.00;4946495;28;20247;-64
2023/03/30 02:51:31;;;;;;;2.67;1.90;;;;;;;6.49;43.94;95447.94;4991551;28;20232;-65
2023/03/30 02:54:08;;;;;;;3.27;2.00;;;;;;;6.58;44.15;95447.28;4960750;28;20228;-71
2023/03/30 02:56:40;;;;;;;2.63;2.20;;;;;;;6.35;44.84;95448.16;4962595;28;20279;-64
2023/03/30 02:59:28;;;;;;;3.47;2.40;;;;;;;6.45;44.83;95441.31;4978407;28;20180;-70
2023/03/30 03:02:24;;;;;;;2.83;2.20;;;;;;;6.29;45.75;95444.25;4989986;28;20224;-64
2023/03/30 03:04:52;;;;;;;2.90;2.30;;;;;;;6.15;46.60;95445.28;4935065;29;20220;-64
2023/03/30 03:07:19;;;;;;;2.93;2.30;;;;;;;6.22;46.90;95452.66;4925446;29;20260;-64
2023/03/30 03:09:44;;;;;;;4.30;2.40;;;;;;;6.31;46.63;95446.75;4925500;29;20295;-65
2023/03/30 03:12:10;;;;;;;4.77;2.23;;;;;;;6.43;46.00;95450.22;4919387;29;20323;-69
2023/03/30 03:14:36;;;;;;;4.53;2.43;;;;;;;6.49;46.15;95454.97;4935106;28;20239;-71
2023/03/30 03:17:03;;;;;;;3.50;2.17;;;;;;;6.44;46.59;95457.09;4931312;29;20224;-68
2023/03/30 03:19:29;;;;;;;2.40;2.20;;;;;;;6.39;47.04;95453.06;4929368;29;20239;-64
2023/03/30 03:21:55;;;;;;;3.10;2.70;;;;;;;6.26;47.26;95464.53;4925113;29;20228;-64
2023/03/30 03:24:20;;;;;;;4.10;2.50;;;;;;;6.40;47.23;95467.78;4934408;29;20239;-64
2023/03/30 03:26:46;;;;;;;6.43;2.97;;;;;;;6.22;47.76;95456.09;4928556;28;20188;-69
2023/03/30 03:29:12;;;;;;;3.33;2.30;;;;;;;6.23;47.66;95456.91;4928261;29;20201;-68
2023/03/30 03:31:37;;;;;;;2.40;2.07;;;;;;;6.29;47.79;95448.63;4946774;29;20223;-69
2023/03/30 03:34:03;;;;;;;2.63;2.23;;;;;;;6.36;47.99;95460.28;4919325;29;20237;-65
2023/03/30 03:36:29;;;;;;;4.20;2.60;;;;;;;6.30;48.33;95471.19;4949703;28;20315;-63
2023/03/30 03:38:55;;;;;;;2.43;2.07;;;;;;;6.38;48.07;95464.44;4924383;29;20221;-70
2023/03/30 03:41:21;;;;;;;3.90;2.70;;;;;;;6.36;48.29;95461.13;4931918;29;20201;-64
2023/03/30 03:43:47;;;;;;;3.50;2.57;;;;;;;6.50;48.26;95464.47;4963842;28;20267;-64
2023/03/30 03:46:13;;;;;;;4.37;2.77;;;;;;;6.40;48.25;95472.16;4991522;28;20232;-68
2023/03/30 03:48:39;;;;;;;3.33;3.03;;;;;;;6.33;48.75;95473.56;4972848;28;20334;-68
2023/03/30 03:51:05;;;;;;;5.63;2.83;;;;;;;6.38;48.70;95477.50;4972797;28;20286;-69
2023/03/30 03:53:30;;;;;;;3.63;2.77;;;;;;;6.36;48.78;95489.00;4972074;28;20189;-67
2023/03/30 03:55:56;;;;;;;2.97;2.67;;;;;;;6.25;49.59;95486.38;4976812;28;20184;-69
2023/03/30 03:58:22;;;;;;;2.90;2.67;;;;;;;6.36;49.22;95483.78;4966291;28;20307;-70
2023/03/30 04:00:49;;;;;;;3.00;2.80;;;;;;;6.42;49.29;95478.13;4969384;28;20228;-70
2023/03/30 04:03:14;;;;;;;4.77;2.57;;;;;;;6.45;48.98;95488.34;4968576;28;20267;-69
2023/03/30 04:05:40;;;;;;;3.10;2.80;;;;;;;6.51;49.11;95482.63;4972830;28;20216;-69
2023/03/30 04:08:09;;;;;;;3.43;2.90;;;;;;;6.31;49.46;95483.31;4972396;28;20266;-68
2023/03/30 04:10:39;;;;;;;6.60;3.47;;;;;;;6.24;50.37;95485.53;4999180;28;20224;-69
2023/03/30 04:13:04;;;;;;;3.20;2.70;;;;;;;6.21;50.58;95475.31;4971903;28;20231;-68
2023/03/30 04:15:30;;;;;;;4.43;3.20;;;;;;;6.13;50.85;95475.06;4979573;28;20225;-74
2023/03/30 04:17:58;;;;;;;3.83;3.20;;;;;;;6.28;50.68;95480.91;4971725;28;20644;-71
2023/03/30 04:20:25;;;;;;;4.30;2.90;;;;;;;6.34;50.71;95475.25;4972234;28;20258;-68
2023/03/30 04:22:52;;;;;;;4.50;3.40;;;;;;;6.44;50.21;95472.75;4979959;28;20302;-67
2023/03/30 04:25:20;;;;;;;7.27;3.47;;;;;;;6.50;50.30;95477.53;4967499;28;20317;-64
2023/03/30 04:27:50;;;;;;;3.80;3.20;;;;;;;6.51;50.19;95480.03;4967430;28;20751;-65
2023/03/30 04:30:16;;;;;;;5.60;3.60;;;;;;;6.62;49.96;95472.19;4972500;28;20227;-71
2023/03/30 04:32:43;;;;;;;4.03;3.57;;;;;;;6.66;49.73;95474.59;4968367;28;20188;-65
2023/03/30 04:35:09;;;;;;;5.27;3.50;;;;;;;6.63;50.38;95473.88;4970814;28;20227;-70
2023/03/30 04:37:36;;;;;;;6.33;3.73;;;;;;;6.63;50.13;95475.66;4952639;28;20231;-65
2023/03/30 04:40:08;;;;;;;4.10;3.70;;;;;;;6.60;50.28;95471.50;4972541;28;20657;-70
2023/03/30 04:42:36;;;;;;;4.93;4.10;;;;;;;6.63;50.03;95479.13;4970330;28;20554;-65
2023/03/30 04:45:11;;;;;;;5.87;3.40;;;;;;;6.67;49.79;95476.25;4994268;28;20228;-71
2023/03/30 04:47:37;;;;;;;7.17;3.43;;;;;;;6.71;49.43;95478.53;4958444;28;20283;-72
2023/03/30 04:50:02;;;;;;;3.90;3.50;;;;;;;6.56;49.75;95487.53;4966569;28;20244;-69
2023/03/30 04:52:28;;;;;;;4.20;3.70;;;;;;;6.49;49.84;95481.09;4990315;28;20228;-71
2023/03/30 04:54:54;;;;;;;5.70;3.70;;;;;;;6.63;49.98;95488.72;4969281;28;20220;-69
2023/03/30 04:57:20;;;;;;;5.97;3.70;;;;;;;6.74;49.49;95487.91;4961835;28;20224;-70
2023/03/30 04:59:45;;;;;;;5.83;4.20;;;;;;;6.84;49.11;95486.25;4958696;28;20199;-70
2023/03/30 05:02:12;;;;;;;5.00;4.20;;;;;;;6.88;49.04;95485.06;4996537;28;20192;-69
2023/03/30 05:04:38;;;;;;;5.03;3.80;;;;;;;6.75;49.16;95487.78;4961353;28;20237;-71
2023/03/30 05:07:05;;;;;;;4.93;3.53;;;;;;;6.56;49.59;95484.91;4971858;28;20231;-70
2023/03/30 05:09:31;;;;;;;4.50;4.00;;;;;;;6.65;49.82;95493.81;4971987;28;20228;-71
2023/03/30 05:11:56;;;;;;;4.40;3.93;;;;;;;6.35;50.73;95490.78;4964633;28;20226;-70
2023/03/30 05:14:22;;;;;;;4.83;4.27;;;;;;;6.54;50.36;95489.41;4969014;28;20189;-71
2023/03/30 05:16:47;;;;;;;5.00;4.00;;;;;;;6.51;50.60;95490.47;4969711;28;20235;-71
2023/03/30 05:19:12;;;;;;;10.03;4.77;;;;;;;6.50;50.29;95491.44;4965691;28;20227;-66
2023/03/30 05:21:38;;;;;;;9.40;4.10;;;;;;;6.45;51.26;95490.13;4998051;28;20224;-66
2023/03/30 05:24:03;;;;;;;5.13;3.60;;;;;;;6.28;50.98;95488.75;4960393;28;20643;-65
2023/03/30 05:26:29;;;;;;;6.90;3.63;;;;;;;6.55;50.64;95488.47;4998049;28;20212;-66
2023/03/30 05:28:55;;;;;;;5.13;3.67;;;;;;;6.58;50.22;95496.91;4976874;28;20221;-67
2023/03/30 05:31:20;;;;;;;4.67;3.77;;;;;;;6.76;49.64;95493.84;4970692;28;20259;-68
2023/03/30 05:33:46;;;;;;;8.50;3.97;;;;;;;6.84;49.80;95499.31;4971411;28;20679;-66
2023/03/30 05:36:12;;;;;;;9.60;4.00;;;;;;;6.89;49.71;95494.56;4970808;28;20231;-65
2023/03/30 05:38:38;;;;;;;5.73;3.93;;;;;;;6.89;49.73;95484.13;4975484;28;20215;-65
2023/03/30 05:41:04;;;;;;;7.63;3.87;;;;;;;6.91;50.19;95490.06;4964490;28;20193;-66
2023/03/30 05:43:30;;;;;;;7.83;4.50;;;;;;;6.95;49.80;95488.91;4965890;28;20787;-66
2023/03/30 05:45:56;;;;;;;5.23;4.20;;;;;;;7.10;49.74;95492.09;4970532;28;20222;-66
2023/03/30 05:48:22;;;;;;;7.87;4.57;;;;;;;7.17;49.56;95497.69;4969884;28;20224;-67
2023/03/30 05:50:48;;;;;;;5.73;4.47;;;;;;;7.25;49.25;95495.31;4968526;28;20302;-68
2023/03/30 05:53:13;;;;;;;8.50;4.63;;;;;;;7.26;49.48;95502.19;4972930;28;20222;-68
2023/03/30 05:55:41;;;;;;;10.17;4.80;;;;;;;7.41;49.14;95511.47;4965525;28;20221;-68
2023/03/30 05:58:07;;;;;;;7.47;4.90;;;;;;;7.44;49.46;95499.94;4965176;28;20212;-68
2023/03/30 06:00:35;;;;;;;9.70;5.47;;;;;;;7.34;49.85;95507.66;4967879;28;20235;-67
2023/03/30 06:03:01;;;;;;;7.40;4.13;;;;;;;7.37;50.15;95517.06;4964737;28;20236;-68
2023/03/30 06:05:26;;;;;;;6.67;4.63;;;;;;;7.46;49.82;95514.56;4986039;28;20332;-67
2023/03/30 06:07:52;;;;;;;9.77;5.27;;;;;;;7.60;49.68;95512.63;4969769;28;20223;-69
2023/03/30 06:10:18;;;;;;;7.27;4.50;;;;;;;7.60;49.79;95517.88;4970078;28;20706;-69
2023/03/30 06:12:43;;;;;;;7.53;4.50;;;;;;;7.58;49.90;95519.78;4965071;28;20267;-69
2023/03/30 06:15:09;;;;;;;8.10;5.43;;;;;;;7.64;49.84;95533.19;4963537;28;20735;-68
2023/03/30 06:17:35;;;;;;;8.03;4.63;;;;;;;7.65;49.40;95523.59;4963793;28;20196;-69
2023/03/30 06:20:10;;;;;;;7.77;5.23;;;;;;;7.68;49.92;95523.34;4993380;28;20194;-70
2023/03/30 06:22:35;;;;;;;6.30;5.23;;;;;;;7.72;49.61;95530.84;4969606;28;20231;-68
2023/03/30 06:25:01;;;;;;;14.97;5.80;;;;;;;7.56;50.35;95526.91;4970278;28;20310;-68
2023/03/30 06:27:30;;;;;;;7.60;4.90;;;;;;;7.29;50.99;95530.72;4961737;28;20238;-68
2023/03/30 06:29:55;;;;;;;6.90;5.33;;;;;;;7.06;51.75;95535.13;4959404;28;20260;-71
2023/03/30 06:32:21;;;;;;;9.47;6.60;;;;;;;7.37;50.78;95537.97;4963819;28;20220;-71
2023/03/30 06:34:46;;;;;;;15.07;5.47;;;;;;;6.99;51.76;95533.94;4993067;28;20236;-69
2023/03/30 06:37:12;;;;;;;9.43;5.50;;;;;;;7.15;51.63;95536.19;4970710;28;20228;-65
2023/03/30 06:39:37;;;;;;;9.00;5.97;;;;;;;6.89;52.35;95540.78;4969360;28;20336;-66
2023/03/30 06:42:04;;;;;;;8.47;6.27;;;;;;;6.96;52.67;95537.59;4966437;28;20232;-69
2023/03/30 06:44:30;;;;;;;8.93;5.50;;;;;;;6.90;52.57;95539.88;4993928;28;20308;-69
2023/03/30 06:46:56;;;;;;;12.70;6.20;;;;;;;6.88;53.14;95541.75;4964882;28;20271;-69
2023/03/30 06:49:21;;;;;;;8.33;5.97;;;;;;;7.10;52.67;95535.72;4968212;28;20268;-64
2023/03/30 06:51:47;;;;;;;9.07;5.43;;;;;;;7.31;51.37;95541.91;4965205;28;20236;-65
2023/03/30 06:54:12;;;;;;;9.80;6.10;;;;;;;7.53;50.95;95562.00;4994324;28;20230;-65
2023/03/30 06:56:37;;;;;;;10.87;5.67;;;;;;;7.72;50.40;95558.75;4967190;28;20200;-66
2023/03/30 06:59:04;;;;;;;9.37;5.93;;;;;;;7.83;49.34;95561.41;4968619;28;20184;-63
2023/03/30 07:01:30;;;;;;;7.00;4.73;;;;;;;7.91;49.13;95551.16;4963844;28;20235;-65
2023/03/30 07:03:55;;;;;;;7.53;5.07;;;;;;;8.00;49.59;95548.75;4971260;28;20232;-65
2023/03/30 07:06:21;;;;;;;6.60;5.80;;;;;;;8.00;49.15;95559.22;4962235;28;20244;-68
2023/03/30 07:08:47;;;;;;;10.83;5.87;;;;;;;8.09;49.13;95550.59;4969401;28;20258;-68
2023/03/30 07:11:13;;;;;;;12.73;7.00;;;;;;;8.16;49.29;95555.22;4954462;28;20247;-71
2023/03/30 07:13:38;;;;;;;6.97;5.33;;;;;;;8.28;48.57;95545.53;4966077;28;20224;-66
2023/03/30 07:16:05;;;;;;;6.77;5.40;;;;;;;8.43;48.53;95546.13;4968749;28;20254;-64
2023/03/30 07:18:30;;;;;;;7.93;6.10;;;;;;;8.45;48.41;95552.06;4959528;28;20239;-66
2023/03/30 07:20:59;;;;;;;8.33;6.07;;;;;;;8.57;47.40;95555.47;4963514;28;20310;-68
2023/03/30 07:23:24;;;;;;;9.77;6.67;;;;;;;8.57;47.74;95551.06;4970520;28;20212;-67
2023/03/30 07:25:50;;;;;;;12.43;7.93;;;;;;;8.72;47.25;95556.84;4967859;28;20226;-65
2023/03/30 07:28:16;;;;;;;12.30;7.37;;;;;;;8.66;47.80;95566.97;4972393;28;20252;-66
2023/03/30 07:30:41;;;;;;;11.33;6.10;;;;;;;8.71;47.36;95551.69;4969179;28;20229;-66
2023/03/30 07:33:07;;;;;;;6.97;6.27;;;;;;;8.80;47.18;95556.19;4969497;28;20233;-66
2023/03/30 07:35:33;;;;;;;8.93;6.33;;;;;;;8.87;46.63;95557.31;4968467;28;20238;-69
2023/03/30 07:37:58;;;;;;;10.83;5.90;;;;;;;8.96;46.46;95558.38;4964452;28;20189;-69
2023/03/30 07:40:24;;;;;;;6.27;4.90;;;;;;;8.88;46.38;95563.44;4972212;28;20259;-67
2023/03/30 07:42:49;;;;;;;6.83;5.47;;;;;;;8.92;46.47;95559.56;4970831;28;20224;-69
2023/03/30 07:45:15;;;;;;;8.93;5.40;;;;;;;9.13;45.95;95560.41;4966072;28;20302;-69
2023/03/30 07:47:41;;;;;;;8.07;5.23;;;;;;;9.19;45.62;95564.28;4963784;28;20201;-67
2023/03/30 07:50:07;;;;;;;7.90;5.43;;;;;;;9.22;45.57;95550.91;4995039;28;20294;-70
2023/03/30 07:52:33;;;;;;;10.67;6.80;;;;;;;9.36;45.17;95553.22;4964835;28;20235;-64
2023/03/30 07:54:59;;;;;;;10.73;6.57;;;;;;;9.43;45.11;95549.06;4974651;28;20220;-66
2023/03/30 07:57:25;;;;;;;10.97;5.73;;;;;;;9.59;44.48;95553.00;4974474;28;20238;-66
2023/03/30 07:59:51;;;;;;;10.50;5.63;;;;;;;9.77;44.22;95551.41;4971525;28;20307;-69
2023/03/30 08:02:16;;;;;;;7.97;5.97;;;;;;;9.81;43.89;95541.47;4971730;28;20287;-67
2023/03/30 08:04:43;;;;;;;9.70;5.83;;;;;;;9.94;43.73;95544.69;4967764;28;20248;-67
2023/03/30 08:07:10;;;;;;;8.93;6.03;;;;;;;9.90;43.48;95549.38;4972029;28;20320;-62
2023/03/30 08:09:35;;;;;;;9.03;5.93;;;;;;;9.88;43.78;95550.47;4971673;28;20232;-61
2023/03/30 08:12:01;;;;;;;7.72;5.55;;;;;;;10.01;43.48;95551.06;4957536;28;20224;-64
2023/03/30 08:14:26;;;;;;;10.13;6.33;;;;;;;10.10;43.36;95545.00;4967538;28;20224;-66
2023/03/30 08:16:55;;;;;;;7.73;5.63;;;;;;;10.06;43.38;95545.41;4964455;28;20556;-66
2023/03/30 08:19:23;;;;;;;11.95;6.28;;;;;;;10.15;43.37;95542.78;4962982;28;20224;-65
2023/03/30 08:21:48;;;;;;;11.98;6.55;;;;;;;9.94;43.42;95537.66;4955261;28;20228;-64
2023/03/30 08:24:14;;;;;;;9.13;5.10;;;;;;;9.92;43.10;95539.56;4966690;28;20251;-62
2023/03/30 08:26:39;;;;;;;6.13;5.50;;;;;;;9.44;44.15;95531.56;4972473;28;20208;-66
2023/03/30 08:29:05;;;;;;;6.23;4.87;;;;;;;9.45;43.93;95536.66;4972491;28;20268;-65
2023/03/30 08:31:31;;;;;;;7.47;5.50;;;;;;;9.69;43.50;95525.81;4970934;28;20228;-65
2023/03/30 08:33:58;;;;;;;7.53;5.40;;;;;;;9.98;43.18;95535.56;4969552;28;20221;-68
2023/03/30 08:36:24;;;;;;;6.15;5.25;;;;;;;10.19;42.62;95538.09;4970195;28;20243;-67
2023/03/30 08:38:49;;;;;;;11.02;5.47;;;;;;;10.43;42.19;95532.47;4965407;28;20255;-67
2023/03/30 08:41:27;;;;;;;9.07;4.90;;;;;;;10.44;41.32;95536.75;4963747;28;20247;-67
2023/03/30 08:44:24;;;;;;;6.43;5.27;;;;;;;10.28;41.87;95539.94;4971455;28;20255;-64
2023/03/30 08:46:50;;;;;;;7.00;4.80;;;;;;;10.42;41.62;95536.06;4934689;28;20233;-66
2023/03/30 08:49:19;;;;;;;6.85;4.55;;;;;;;10.55;40.69;95533.97;4929390;29;20230;-67
2023/03/30 08:51:47;;;;;;;6.03;4.43;;;;;;;10.82;40.30;95535.06;4942838;28;20237;-66
2023/03/30 08:54:18;;;;;;;6.00;5.30;;;;;;;10.65;41.33;95534.00;4939171;29;20232;-68
2023/03/30 08:57:16;;;;;;;6.87;4.60;;;;;;;10.59;41.08;95527.50;4934295;29;20248;-69
2023/03/30 08:59:57;;;;;;;6.63;4.57;;;;;;;11.01;39.84;95527.16;4927626;28;20216;-70
2023/03/30 09:02:37;;;;;;;6.18;4.40;;;;;;;10.79;40.08;95525.66;4942247;28;20196;-71
2023/03/30 09:05:21;;;;;;;6.55;3.75;;;;;;;10.92;39.60;95514.03;4944637;29;20328;-71
2023/03/30 09:07:58;;;;;;;5.65;4.43;;;;;;;11.14;39.17;95515.50;4933679;29;20229;-71
2023/03/30 09:10:28;;;;;;;8.73;4.72;;;;;;;11.00;39.29;95509.69;4943321;29;20659;-63
2023/03/30 09:12:59;;;;;;;9.65;4.18;;;;;;;11.14;39.17;95511.03;4930277;28;20276;-65
2023/03/30 09:15:28;;;;;;;6.13;4.40;;;;;;;11.28;38.65;95509.78;4931368;29;20229;-68
2023/03/30 09:18:12;;;;;;;5.85;4.13;;;;;;;11.39;37.81;95506.97;4936394;29;20271;-64
2023/03/30 09:20:39;;;;;;;8.15;4.30;;;;;;;11.53;37.88;95495.13;4944163;29;20570;-64
2023/03/30 09:23:11;;;;;;;6.88;5.43;;;;;;;11.50;38.21;95494.59;4954710;28;20846;-63
2023/03/30 09:25:40;;;;;;;5.93;4.57;;;;;;;11.57;37.77;95488.56;4959501;28;20256;-64
2023/03/30 09:28:15;;;;;;;6.82;4.35;;;;;;;11.47;38.37;95499.16;4999159;28;20216;-64
2023/03/30 09:30:47;;;;;;;6.22;3.97;;;;;;;11.49;38.13;95501.63;4993602;28;20216;-64
2023/03/30 09:33:43;;;;;;;7.68;3.90;;;;;;;11.61;37.57;95484.69;4973002;28;20275;-63
2023/03/30 09:36:36;;;;;;;5.53;4.30;;;;;;;11.91;36.97;95473.03;4975842;28;20276;-63
2023/03/30 09:39:08;;;;;;;5.38;3.83;;;;;;;12.17;36.63;95456.47;4966438;28;20215;-63
2023/03/30 09:41:33;;;;;;;4.35;3.85;;;;;;;12.55;36.07;95465.03;4991196;28;20216;-63
2023/03/30 09:44:00;;;;;;;6.13;4.20;;;;;;;12.88;34.88;95467.91;4999130;28;20286;-63
2023/03/30 09:46:26;;;;;;;6.00;3.97;;;;;;;12.73;35.04;95465.84;4970547;28;20328;-63
2023/03/30 09:48:51;;;;;;;2.92;1.90;;;;;;;12.84;32.73;95466.59;4958853;28;20251;-64
2023/03/30 09:51:19;;;;;;;2.03;1.83;;;;;;;13.01;32.17;95468.31;4971277;28;20228;-64
2023/03/30 09:53:47;;;;;;;3.15;2.00;;;;;;;13.22;32.11;95454.75;4968892;28;20181;-65
2023/03/30 09:56:27;;;;;;;2.65;1.60;;;;;;;13.30;31.83;95462.75;4976777;28;20177;-64
2023/03/30 09:58:54;;;;;;;4.40;2.20;;;;;;;13.40;31.56;95452.91;4972490;28;20231;-64
2023/03/30 10:01:22;;;;;;;2.65;1.77;;;;;;;13.12;32.16;95454.84;4970070;28;20256;-63
2023/03/30 10:04:09;;;;;;;2.70;1.92;;;;;;;13.27;32.24;95431.38;4994866;28;20315;-63
2023/03/30 10:06:55;;;;;;;4.60;2.15;;;;;;;13.20;32.19;95446.16;4962047;28;20225;-64
2023/03/30 10:09:22;;;;;;;3.33;2.28;;;;;;;13.12;32.70;95449.56;4968828;28;20247;-64
2023/03/30 10:11:50;;;;;;;2.15;1.83;;;;;;;13.30;32.13;95454.81;4962678;28;20795;-63
2023/03/30 10:14:31;;;;;;;3.15;2.10;;;;;;;13.33;31.99;95441.31;4966736;28;20185;-63
2023/03/30 10:16:58;;;;;;;3.92;2.28;;;;;;;13.33;32.15;95446.59;4969535;28;20207;-63
2023/03/30 10:19:24;;;;;;;3.10;1.90;;;;;;;13.33;31.78;95440.47;4961297;28;20244;-63
2023/03/30 10:21:58;;;;;;;2.78;1.73;;;;;;;13.32;31.55;95441.47;4963987;28;20240;-64
2023/03/30 10:24:30;;;;;;;2.08;1.77;;;;;;;13.27;31.75;95435.84;4996230;28;20232;-64
2023/03/30 10:27:02;;;;;;;4.57;2.20;;;;;;;13.25;31.88;95428.84;4959967;28;20315;-64
2023/03/30 10:29:28;;;;;;;4.10;2.20;;;;;;;13.25;32.58;95431.50;4967610;28;20208;-63
2023/03/30 10:32:22;;;;;;;5.00;2.25;;;;;;;13.78;31.47;95424.28;4968263;28;20224;-64
2023/03/30 10:34:54;;;;;;;2.15;1.95;;;;;;;13.76;31.80;95428.09;4958570;28;20224;-64
2023/03/30 10:37:27;;;;;;;2.53;1.90;;;;;;;14.03;31.33;95427.84;4970463;28;20232;-66
2023/03/30 10:39:56;;;;;;;2.53;2.03;;;;;;;13.96;31.58;95413.59;4973454;28;20232;-64
2023/03/30 10:42:25;;;;;;;2.08;1.60;;;;;;;14.12;30.88;95421.53;4965010;28;20221;-67
2023/03/30 10:44:55;;;;;;;3.55;1.80;;;;;;;14.12;31.10;95420.72;4967691;28;20231;-67
2023/03/30 10:47:36;;;;;;;3.58;1.90;;;;;;;14.16;30.88;95413.28;4956574;28;20185;-71
2023/03/30 10:50:07;;;;;;;4.10;1.90;;;;;;;14.22;31.68;95416.13;4994644;28;20297;-67
2023/03/30 10:52:41;;;;;;;3.85;1.67;;;;;;;14.27;31.27;95421.75;4992380;28;20252;-67
2023/03/30 10:55:16;;;;;;;6.05;2.72;;;;;;;14.26;30.77;95411.31;4957716;28;20224;-68
2023/03/30 10:57:41;;;;;;;4.68;3.10;;;;;;;14.22;30.63;95418.75;4972616;28;20225;-67
2023/03/30 11:00:39;;;;;;;2.60;2.40;;;;;;;14.30;30.64;95402.03;4996138;28;20229;-70
2023/03/30 11:03:20;;;;;;;1.70;1.52;;;;;;;14.46;30.42;95420.59;4961500;28;20225;-68
2023/03/30 11:05:50;;;;;;;2.72;2.00;;;;;;;14.20;30.84;95404.88;4964537;28;20252;-69
2023/03/30 11:08:29;;;;;;;4.85;2.30;;;;;;;14.21;30.83;95387.16;4997258;28;20191;-70
2023/03/30 11:10:58;;;;;;;3.08;1.80;;;;;;;14.19;30.86;95397.09;4966913;28;20290;-68
2023/03/30 11:13:37;;;;;;;3.05;2.00;;;;;;;14.41;30.29;95393.78;4976971;28;20225;-69
2023/03/30 11:16:15;;;;;;;2.10;1.90;;;;;;;14.52;30.32;95390.84;4958503;28;20228;-69
2023/03/30 11:19:04;;;;;;;4.50;2.08;;;;;;;14.70;30.24;95388.00;4970768;28;20279;-68
2023/03/30 11:21:36;;;;;;;2.88;1.63;;;;;;;14.86;29.28;95384.50;4967039;28;20315;-69
2023/03/30 11:24:11;;;;;;;3.05;2.00;;;;;;;14.83;29.96;95376.06;4963105;28;20234;-68
2023/03/30 11:27:02;;;;;;;2.45;1.90;;;;;;;14.56;29.85;95370.16;4966992;28;20194;-70
2023/03/30 11:29:46;;;;;;;1.98;1.77;;;;;;;15.00;29.49;95372.38;4955123;28;20319;-66
2023/03/30 11:32:31;;;;;;;3.05;2.20;;;;;;;14.47;29.83;95361.38;4972497;28;20222;-65
2023/03/30 11:35:05;;;;;;;2.65;2.20;;;;;;;14.50;29.96;95361.03;4951076;28;20231;-64
2023/03/30 11:37:44;;;;;;;3.58;1.95;;;;;;;14.53;30.16;95350.13;4964891;28;20255;-72
2023/03/30 11:40:24;;;;;;;6.13;2.00;;;;;;;14.65;29.87;95347.13;4951957;28;20215;-71
2023/03/30 11:42:50;;;;;;;2.55;1.80;;;;;;;14.45;29.84;95336.88;4969250;28;20224;-66
2023/03/30 11:45:36;;;;;;;2.05;1.75;;;;;;;14.61;29.67;95341.38;4953097;28;20311;-66
2023/03/30 11:48:10;;;;;;;2.15;1.83;;;;;;;14.93;29.46;95337.81;4967150;28;20220;-70
2023/03/30 11:50:57;;;;;;;4.05;2.05;;;;;;;14.99;28.79;95331.00;4965335;28;20286;-67
2023/03/30 11:53:34;;;;;;;3.70;1.95;;;;;;;15.16;28.59;95332.59;4965670;28;20192;-64
2023/03/30 11:55:59;;;;;;;4.88;1.85;;;;;;;15.00;29.32;95332.66;4968175;28;20216;-63